Time;durP1;ratioP1;P1;durP2;ratioP2;P2;SDS_P1;SDS_P2;PMS_P1;PMS_P2;Temp;Humidity;BMP_temperature;BMP_pressure;BME280_temperature;BME280_humidity;BME280_pressure;Samples;Min_cycle;Max_cycle;Signal;HPM_P1;HPM_P2
2022/06/23 00:00:37;;;;;;;2.38;1.70;;;;;24.90;100144.00;;;;2061516;28;20214;-49
2022/06/23 00:01:57;;;;;;;2.20;2.00;;;;;24.90;100140.00;;;;2068105;28;20225;-48
2022/06/23 00:02:58;;;;;;;1.95;1.77;;;;;24.90;100125.00;;;;2060854;28;20217;-49
2022/06/23 00:03:58;;;;;;;2.60;1.63;;;;;24.90;100141.00;;;;2061653;28;20222;-48
2022/06/23 00:05:03;;;;;;;2.20;1.60;;;;;24.90;100144.00;;;;2069620;28;20222;-49
2022/06/23 00:06:08;;;;;;;1.70;1.55;;;;;24.90;100149.00;;;;2069646;28;20597;-48
2022/06/23 00:07:24;;;;;;;4.10;1.90;;;;;24.90;100146.00;;;;2062446;28;20243;-48
2022/06/23 00:08:24;;;;;;;2.75;1.70;;;;;24.90;100136.00;;;;2063554;28;20211;-49
2022/06/23 00:09:40;;;;;;;1.67;1.50;;;;;24.90;100140.00;;;;2069410;28;20349;-48
2022/06/23 00:10:44;;;;;;;2.17;1.63;;;;;24.90;100136.00;;;;2063020;28;20214;-48
2022/06/23 00:11:48;;;;;;;2.00;1.65;;;;;24.90;100135.00;;;;2079835;28;20209;-49
2022/06/23 00:12:48;;;;;;;2.20;1.50;;;;;24.90;100134.00;;;;2080673;28;20219;-49
2022/06/23 00:13:49;;;;;;;2.07;1.53;;;;;24.90;100136.00;;;;2080054;28;20308;-48
2022/06/23 00:14:52;;;;;;;2.60;2.17;;;;;24.90;100132.00;;;;2079746;28;20217;-48
2022/06/23 00:15:54;;;;;;;1.60;1.50;;;;;24.90;100132.00;;;;2079927;28;20577;-48
2022/06/23 00:16:54;;;;;;;1.67;1.50;;;;;24.90;100135.00;;;;2079955;28;20620;-48
2022/06/23 00:17:56;;;;;;;2.00;1.80;;;;;24.90;100125.00;;;;2079044;28;20228;-48
2022/06/23 00:18:56;;;;;;;1.95;1.70;;;;;24.90;100136.00;;;;2079251;28;20700;-48
2022/06/23 00:19:59;;;;;;;1.83;1.50;;;;;24.90;100134.00;;;;2078881;28;20218;-52
2022/06/23 00:21:04;;;;;;;2.13;1.60;;;;;24.90;100120.00;;;;2087332;28;20633;-50
2022/06/23 00:22:04;;;;;;;1.50;1.40;;;;;24.90;100135.00;;;;2071000;28;20217;-48
2022/06/23 00:23:19;;;;;;;1.97;1.40;;;;;24.90;100144.00;;;;2070793;28;20218;-49
2022/06/23 00:24:22;;;;;;;1.92;1.55;;;;;24.90;100136.00;;;;2072817;28;20305;-48
2022/06/23 00:25:46;;;;;;;2.05;1.80;;;;;24.90;100138.00;;;;2070600;28;20218;-49
2022/06/23 00:26:47;;;;;;;1.92;1.73;;;;;24.90;100139.00;;;;2074540;28;20685;-48
2022/06/23 00:27:47;;;;;;;2.50;1.90;;;;;24.90;100142.00;;;;2076555;28;20225;-48
2022/06/23 00:29:01;;;;;;;2.90;2.00;;;;;24.90;100138.00;;;;2062942;28;20317;-48
2022/06/23 00:30:25;;;;;;;1.98;1.50;;;;;24.90;100135.00;;;;2070514;28;20213;-49
2022/06/23 00:31:28;;;;;;;2.22;1.85;;;;;24.80;100144.00;;;;2071145;28;20225;-48
2022/06/23 00:32:29;;;;;;;1.92;1.73;;;;;24.80;100138.00;;;;2071146;28;20215;-50
2022/06/23 00:33:49;;;;;;;1.50;1.40;;;;;24.80;100134.00;;;;2070674;28;20717;-49
2022/06/23 00:35:00;;;;;;;2.10;1.70;;;;;24.80;100130.00;;;;2070470;28;20670;-48
2022/06/23 00:36:00;;;;;;;3.72;1.92;;;;;24.80;100138.00;;;;2062556;28;20221;-49
2022/06/23 00:37:06;;;;;;;2.20;1.83;;;;;24.80;100135.00;;;;2063984;28;20737;-49
2022/06/23 00:38:19;;;;;;;1.95;1.70;;;;;24.80;100139.00;;;;2071005;28;20590;-49
2022/06/23 00:39:27;;;;;;;1.98;1.83;;;;;24.80;100131.00;;;;2062824;28;20278;-48
2022/06/23 00:40:28;;;;;;;2.22;1.98;;;;;24.80;100135.00;;;;2064296;28;20246;-49
2022/06/23 00:41:31;;;;;;;2.87;1.90;;;;;24.80;100134.00;;;;2070687;28;20216;-48
2022/06/23 00:42:40;;;;;;;1.73;1.63;;;;;24.80;100127.00;;;;2066111;28;20220;-49
2022/06/23 00:43:43;;;;;;;2.95;1.77;;;;;24.80;100126.00;;;;2070256;28;20257;-49
2022/06/23 00:44:49;;;;;;;2.72;1.90;;;;;24.80;100127.00;;;;2070546;28;20226;-49
2022/06/23 00:46:05;;;;;;;1.90;1.80;;;;;24.80;100130.00;;;;2072449;28;20214;-48
2022/06/23 00:47:13;;;;;;;3.38;1.85;;;;;24.80;100117.00;;;;2078910;28;20217;-49
2022/06/23 00:48:18;;;;;;;3.90;2.00;;;;;24.80;100130.00;;;;2078531;28;20241;-48
2022/06/23 00:49:27;;;;;;;2.70;1.88;;;;;24.80;100119.00;;;;2079675;28;20233;-49
2022/06/23 00:50:34;;;;;;;2.13;1.80;;;;;24.80;100117.00;;;;2070567;28;20214;-48
2022/06/23 00:51:43;;;;;;;2.22;1.98;;;;;24.80;100120.00;;;;2072620;28;20304;-49
2022/06/23 00:52:50;;;;;;;2.10;1.70;;;;;24.80;100125.00;;;;2079015;28;20220;-49
2022/06/23 00:54:04;;;;;;;1.95;1.60;;;;;24.80;100121.00;;;;2078785;28;20202;-48
2022/06/23 00:55:28;;;;;;;2.42;1.70;;;;;24.80;100115.00;;;;2062776;28;20578;-49
2022/06/23 00:56:32;;;;;;;3.05;2.03;;;;;24.80;100130.00;;;;2061626;28;20229;-48
2022/06/23 00:57:36;;;;;;;3.08;1.77;;;;;24.80;100135.00;;;;2063388;28;20414;-49
2022/06/23 00:58:53;;;;;;;2.72;2.15;;;;;24.80;100136.00;;;;2062893;28;20223;-49
2022/06/23 01:00:19;;;;;;;2.90;2.00;;;;;24.80;100132.00;;;;2070690;28;20292;-49
2022/06/23 01:01:40;;;;;;;2.00;1.80;;;;;24.80;100132.00;;;;2067404;28;20229;-49
2022/06/23 01:02:46;;;;;;;1.80;1.58;;;;;24.80;100126.00;;;;2071056;28;20225;-48
2022/06/23 01:03:55;;;;;;;1.95;1.73;;;;;24.80;100132.00;;;;2070638;28;20947;-48
2022/06/23 01:05:04;;;;;;;2.90;1.90;;;;;24.80;100158.00;;;;2063370;28;20942;-48
2022/06/23 01:06:35;;;;;;;2.05;1.85;;;;;24.80;100121.00;;;;2054327;28;20215;-50
2022/06/23 01:07:43;;;;;;;5.35;1.75;;;;;24.80;100127.00;;;;2067740;28;20832;-49
2022/06/23 01:08:46;;;;;;;2.38;1.90;;;;;24.80;100123.00;;;;2070750;28;20214;-48
2022/06/23 01:09:50;;;;;;;3.10;1.92;;;;;24.80;100127.00;;;;2070898;28;20223;-48
2022/06/23 01:11:13;;;;;;;2.28;1.90;;;;;24.80;100125.00;;;;2070730;28;20501;-49
2022/06/23 01:12:36;;;;;;;3.05;2.03;;;;;24.80;100121.00;;;;2068466;28;20333;-49
2022/06/23 01:13:42;;;;;;;2.63;1.77;;;;;24.80;100114.00;;;;2065327;28;20775;-50
2022/06/23 01:14:47;;;;;;;1.70;1.60;;;;;24.80;100099.00;;;;2070307;28;20714;-49
2022/06/23 01:15:50;;;;;;;2.28;1.98;;;;;24.80;100102.00;;;;2070574;28;20320;-49
2022/06/23 01:16:53;;;;;;;2.90;2.00;;;;;24.80;100116.00;;;;2063029;28;20210;-48
2022/06/23 01:18:17;;;;;;;2.05;1.85;;;;;24.80;100117.00;;;;2062016;28;20726;-49
2022/06/23 01:19:59;;;;;;;2.08;1.98;;;;;24.80;100119.00;;;;2070229;28;20222;-49
2022/06/23 01:21:15;;;;;;;6.05;2.08;;;;;24.80;100113.00;;;;2067743;28;20214;-48
2022/06/23 01:22:38;;;;;;;2.42;2.20;;;;;24.70;100113.00;;;;2064621;28;20242;-49
2022/06/23 01:23:57;;;;;;;2.53;1.77;;;;;24.80;100116.00;;;;2061915;28;20230;-49
2022/06/23 01:25:16;;;;;;;2.80;2.15;;;;;24.70;100111.00;;;;2066756;28;20744;-48
2022/06/23 01:26:41;;;;;;;2.13;1.92;;;;;24.70;100103.00;;;;2070383;28;20229;-48
2022/06/23 01:28:00;;;;;;;2.20;2.00;;;;;24.70;100112.00;;;;2066474;28;20209;-49
2022/06/23 01:29:20;;;;;;;2.88;1.98;;;;;24.70;100120.00;;;;2070635;28;20217;-49
2022/06/23 01:30:21;;;;;;;2.30;1.98;;;;;24.70;100092.00;;;;2070264;28;20218;-48
2022/06/23 01:31:23;;;;;;;5.83;2.30;;;;;24.70;100116.00;;;;2062364;28;20863;-48
2022/06/23 01:32:36;;;;;;;2.53;1.90;;;;;24.80;100110.00;;;;2062686;28;20223;-49
2022/06/23 01:34:01;;;;;;;4.90;1.80;;;;;24.70;100103.00;;;;2070156;28;20329;-50
2022/06/23 01:35:20;;;;;;;2.83;2.10;;;;;24.80;100105.00;;;;2063116;28;20221;-49
2022/06/23 01:36:25;;;;;;;2.58;2.28;;;;;24.70;100096.00;;;;2070271;28;20648;-49
2022/06/23 01:37:53;;;;;;;5.97;2.30;;;;;24.70;100102.00;;;;2061763;28;20594;-49
2022/06/23 01:39:02;;;;;;;2.50;2.28;;;;;24.70;100114.00;;;;2060877;28;20284;-49
2022/06/23 01:40:20;;;;;;;2.78;2.58;;;;;24.70;100104.00;;;;2063154;28;20225;-48
2022/06/23 01:41:41;;;;;;;2.17;1.67;;;;;24.70;100106.00;;;;2064106;28;20234;-49
2022/06/23 01:43:02;;;;;;;3.28;2.13;;;;;24.70;100106.00;;;;2072612;28;20292;-50
2022/06/23 01:44:27;;;;;;;6.65;2.35;;;;;24.70;100109.00;;;;2077764;28;20225;-49
2022/06/23 01:45:51;;;;;;;2.30;1.80;;;;;24.70;100107.00;;;;2064406;28;21227;-49
2022/06/23 01:46:52;;;;;;;2.85;2.13;;;;;24.70;100112.00;;;;2061343;28;20226;-49
2022/06/23 01:47:59;;;;;;;2.03;1.92;;;;;24.70;100106.00;;;;2061672;28;20636;-49
2022/06/23 01:49:10;;;;;;;2.85;2.40;;;;;24.70;100109.00;;;;2062418;28;20306;-49
2022/06/23 01:50:13;;;;;;;2.75;2.10;;;;;24.70;100106.00;;;;2055971;28;20207;-48
2022/06/23 01:51:24;;;;;;;2.55;2.33;;;;;24.70;100108.00;;;;2070291;28;20249;-49
2022/06/23 01:52:24;;;;;;;2.70;2.03;;;;;24.70;100115.00;;;;2069728;28;20635;-48
2022/06/23 01:53:27;;;;;;;3.40;2.10;;;;;24.70;100107.00;;;;2070246;28;20222;-48
2022/06/23 01:54:27;;;;;;;3.05;2.20;;;;;24.70;100098.00;;;;2070067;28;20221;-48
2022/06/23 01:55:43;;;;;;;2.30;2.10;;;;;24.70;100113.00;;;;2069905;28;20233;-49
2022/06/23 01:56:50;;;;;;;4.35;2.10;;;;;24.70;100109.00;;;;2063644;28;20624;-49
2022/06/23 01:57:54;;;;;;;2.50;2.00;;;;;24.70;100104.00;;;;2061811;28;20564;-50
2022/06/23 01:59:03;;;;;;;2.53;2.00;;;;;24.70;100109.00;;;;2062418;28;20218;-50
2022/06/23 02:00:09;;;;;;;3.30;2.10;;;;;24.70;100115.00;;;;2062772;28;20315;-49
2022/06/23 02:01:13;;;;;;;2.33;2.13;;;;;24.70;100107.00;;;;2069745;28;20655;-50
2022/06/23 02:02:19;;;;;;;2.40;2.20;;;;;24.70;100101.00;;;;2061502;28;20238;-50
2022/06/23 02:03:22;;;;;;;3.35;2.22;;;;;24.70;100105.00;;;;2054318;28;20216;-50
2022/06/23 02:04:31;;;;;;;3.00;2.30;;;;;24.70;100107.00;;;;2061496;28;20326;-48
2022/06/23 02:05:44;;;;;;;2.67;2.30;;;;;24.70;100106.00;;;;2063103;28;20207;-48
2022/06/23 02:06:52;;;;;;;2.47;2.28;;;;;24.70;100109.00;;;;2062490;28;20248;-49
2022/06/23 02:08:09;;;;;;;2.20;1.77;;;;;24.70;100106.00;;;;2062045;28;20677;-50
2022/06/23 02:09:20;;;;;;;3.55;2.20;;;;;24.70;100098.00;;;;2063950;28;20612;-50
2022/06/23 02:10:20;;;;;;;3.40;2.38;;;;;24.70;100099.00;;;;2069012;28;20218;-50
2022/06/23 02:11:43;;;;;;;3.23;2.23;;;;;24.70;100104.00;;;;2070980;28;20631;-50
2022/06/23 02:12:47;;;;;;;2.63;2.30;;;;;24.70;100108.00;;;;2070122;28;20218;-50
2022/06/23 02:14:22;;;;;;;2.25;2.00;;;;;24.70;100083.00;;;;2069749;28;20289;-50
2022/06/23 02:15:34;;;;;;;3.20;2.40;;;;;24.70;100092.00;;;;2063774;28;20718;-50
2022/06/23 02:16:50;;;;;;;2.10;2.00;;;;;24.70;100095.00;;;;2072632;28;20733;-49
2022/06/23 02:17:52;;;;;;;3.25;2.45;;;;;24.70;100104.00;;;;2076975;28;20990;-49
2022/06/23 02:18:57;;;;;;;2.60;2.40;;;;;24.60;100096.00;;;;2069504;28;20694;-49
2022/06/23 02:20:02;;;;;;;2.90;2.22;;;;;24.70;100097.00;;;;2069876;28;20882;-50
2022/06/23 02:21:14;;;;;;;2.55;2.10;;;;;24.70;100102.00;;;;2060942;28;20222;-49
2022/06/23 02:22:25;;;;;;;3.15;2.20;;;;;24.70;100102.00;;;;2058531;28;20235;-49
2022/06/23 02:23:31;;;;;;;2.20;2.00;;;;;24.70;100103.00;;;;2077919;28;20228;-50
2022/06/23 02:24:37;;;;;;;2.47;2.25;;;;;24.70;100119.00;;;;2078659;28;20225;-50
2022/06/23 02:25:40;;;;;;;2.47;2.10;;;;;24.50;100104.00;;;;2069792;28;20270;-49
2022/06/23 02:26:52;;;;;;;2.72;2.10;;;;;24.70;100094.00;;;;2070841;28;20206;-49
2022/06/23 02:27:56;;;;;;;2.65;1.77;;;;;24.70;100101.00;;;;2076127;28;20236;-48
2022/06/23 02:29:18;;;;;;;2.15;1.95;;;;;24.60;100102.00;;;;2070065;28;20922;-49
2022/06/23 02:30:28;;;;;;;2.80;2.00;;;;;24.60;100102.00;;;;2064597;28;20214;-49
2022/06/23 02:31:35;;;;;;;2.70;2.20;;;;;24.60;100084.00;;;;2070108;28;20210;-49
2022/06/23 02:32:47;;;;;;;2.40;2.20;;;;;24.60;100103.00;;;;2061678;28;20219;-49
2022/06/23 02:34:25;;;;;;;2.33;2.13;;;;;24.60;100110.00;;;;2062924;28;20219;-50
2022/06/23 02:35:36;;;;;;;4.03;2.63;;;;;24.60;100112.00;;;;2069237;28;20206;-50
2022/06/23 02:36:41;;;;;;;2.60;2.40;;;;;24.60;100116.00;;;;2065524;28;20250;-49
2022/06/23 02:37:56;;;;;;;3.78;2.15;;;;;24.60;100113.00;;;;2068849;28;20218;-50
2022/06/23 02:38:58;;;;;;;2.72;2.28;;;;;24.60;100108.00;;;;2070109;28;20233;-50
2022/06/23 02:39:58;;;;;;;2.78;2.28;;;;;24.60;100098.00;;;;2069838;28;20209;-50
2022/06/23 02:41:01;;;;;;;2.70;2.40;;;;;24.60;100110.00;;;;2069752;28;20225;-50
2022/06/23 02:42:04;;;;;;;2.60;2.40;;;;;24.60;100090.00;;;;2070602;28;20290;-49
2022/06/23 02:43:10;;;;;;;2.33;2.13;;;;;24.60;100111.00;;;;2070658;28;20214;-50
2022/06/23 02:44:13;;;;;;;2.88;2.40;;;;;24.60;100110.00;;;;2070317;28;20567;-49
2022/06/23 02:45:23;;;;;;;2.40;2.20;;;;;24.60;100117.00;;;;2070489;28;20325;-50
2022/06/23 02:46:43;;;;;;;3.25;2.83;;;;;24.60;100112.00;;;;2069496;28;20245;-49
2022/06/23 02:47:54;;;;;;;2.60;2.40;;;;;24.60;100113.00;;;;2057189;28;20222;-48
2022/06/23 02:49:32;;;;;;;2.78;2.58;;;;;24.60;100107.00;;;;2069540;28;20301;-50
2022/06/23 02:50:40;;;;;;;3.13;2.50;;;;;24.60;100101.00;;;;2069274;28;20215;-49
2022/06/23 02:52:06;;;;;;;2.95;2.47;;;;;24.60;100105.00;;;;2062658;28;20794;-49
2022/06/23 02:53:12;;;;;;;3.17;2.60;;;;;24.60;100112.00;;;;2069744;28;20232;-49
2022/06/23 02:55:04;;;;;;;3.05;2.45;;;;;24.60;100103.00;;;;2068329;28;20336;-49
2022/06/23 02:56:22;;;;;;;2.90;2.65;;;;;24.60;100104.00;;;;2052376;28;21169;-49
2022/06/23 02:57:28;;;;;;;5.40;2.70;;;;;24.60;100098.00;;;;2043926;28;20440;-50
2022/06/23 02:58:32;;;;;;;2.75;2.35;;;;;24.60;100119.00;;;;2046032;28;20216;-49
2022/06/23 02:59:46;;;;;;;2.85;2.22;;;;;24.60;100101.00;;;;2044799;28;20348;-50
2022/06/23 03:00:49;;;;;;;2.45;2.25;;;;;24.60;100100.00;;;;2046743;28;20334;-49
2022/06/23 03:02:18;;;;;;;3.28;2.85;;;;;24.60;100107.00;;;;2057823;28;20310;-51
2022/06/23 03:03:37;;;;;;;2.75;2.55;;;;;24.60;100118.00;;;;2064703;28;20970;-53
2022/06/23 03:04:57;;;;;;;2.63;2.42;;;;;24.60;100109.00;;;;2061366;28;20304;-49
2022/06/23 03:06:25;;;;;;;4.60;2.50;;;;;24.50;100105.00;;;;2064266;28;20214;-50
2022/06/23 03:07:50;;;;;;;7.45;3.13;;;;;24.50;100110.00;;;;2055310;28;20302;-50
2022/06/23 03:08:56;;;;;;;3.10;2.58;;;;;24.50;100115.00;;;;2067575;28;20717;-51
2022/06/23 03:10:19;;;;;;;3.15;2.63;;;;;24.50;100106.00;;;;2069484;28;20327;-48
2022/06/23 03:11:53;;;;;;;2.83;2.50;;;;;24.60;100109.00;;;;2072410;28;20221;-52
2022/06/23 03:13:06;;;;;;;2.75;2.55;;;;;24.20;100118.00;;;;2077571;28;20205;-49
2022/06/23 03:14:06;;;;;;;3.85;2.65;;;;;24.60;100116.00;;;;2075604;28;20243;-49
2022/06/23 03:15:11;;;;;;;3.83;2.80;;;;;24.50;100117.00;;;;2069557;28;20305;-49
2022/06/23 03:16:20;;;;;;;3.25;2.95;;;;;24.50;100117.00;;;;2078090;28;20292;-49
2022/06/23 03:17:32;;;;;;;2.97;2.65;;;;;24.50;100118.00;;;;2076730;28;20213;-52
2022/06/23 03:18:51;;;;;;;4.28;2.85;;;;;24.60;100106.00;;;;2077954;28;20425;-49
2022/06/23 03:20:09;;;;;;;3.75;2.67;;;;;24.60;100116.00;;;;2077717;28;20553;-50
2022/06/23 03:21:18;;;;;;;3.10;2.80;;;;;24.50;100112.00;;;;2061344;28;20289;-50
2022/06/23 03:22:24;;;;;;;3.90;3.05;;;;;24.50;100113.00;;;;2056428;28;20687;-48
2022/06/23 03:23:43;;;;;;;2.45;2.25;;;;;24.50;100106.00;;;;2068797;28;20273;-50
2022/06/23 03:24:53;;;;;;;3.15;2.72;;;;;24.50;100107.00;;;;2068892;28;20222;-50
2022/06/23 03:26:21;;;;;;;3.40;3.10;;;;;24.50;100096.00;;;;2069312;28;20214;-50
2022/06/23 03:27:50;;;;;;;2.50;2.30;;;;;24.50;100109.00;;;;2068375;28;20222;-49
2022/06/23 03:29:10;;;;;;;5.05;2.58;;;;;24.50;100110.00;;;;2069867;28;20214;-49
2022/06/23 03:30:18;;;;;;;3.40;2.80;;;;;24.50;100096.00;;;;2069303;28;20272;-49
2022/06/23 03:31:27;;;;;;;3.90;2.97;;;;;24.50;100111.00;;;;2054086;28;20223;-49
2022/06/23 03:32:43;;;;;;;2.80;2.60;;;;;24.50;100108.00;;;;2055429;28;20223;-49
2022/06/23 03:33:46;;;;;;;3.08;2.80;;;;;24.50;100112.00;;;;2055086;28;20211;-49
2022/06/23 03:34:49;;;;;;;3.53;2.83;;;;;24.50;100103.00;;;;2063523;28;20584;-49
2022/06/23 03:35:54;;;;;;;3.40;3.10;;;;;24.50;100099.00;;;;2069514;28;20694;-49
2022/06/23 03:37:01;;;;;;;3.08;2.75;;;;;24.50;100111.00;;;;2069607;28;20210;-50
2022/06/23 03:41:38;;;;;;;4.47;2.85;;;;;24.50;100103.00;;;;2068612;28;20218;-50
2022/06/23 03:42:41;;;;;;;3.42;2.80;;;;;24.50;100094.00;;;;2066363;28;20212;-49
2022/06/23 03:43:54;;;;;;;2.92;2.40;;;;;24.50;100097.00;;;;2075519;28;20763;-49
2022/06/23 03:45:03;;;;;;;2.97;2.67;;;;;24.50;100095.00;;;;2069316;28;20218;-50
2022/06/23 03:46:26;;;;;;;3.53;2.58;;;;;24.50;100099.00;;;;2065770;28;20294;-49
2022/06/23 03:47:36;;;;;;;2.80;2.60;;;;;24.50;100091.00;;;;2072914;28;20350;-49
2022/06/23 03:48:51;;;;;;;4.22;3.05;;;;;24.50;100091.00;;;;2071785;28;20228;-49
2022/06/23 03:49:57;;;;;;;3.10;2.80;;;;;24.50;100095.00;;;;2065327;28;20206;-49
2022/06/23 03:51:03;;;;;;;3.67;2.75;;;;;24.50;100094.00;;;;2071072;28;20261;-49
2022/06/23 03:52:05;;;;;;;3.53;3.20;;;;;24.50;100093.00;;;;2062971;28;20214;-49
2022/06/23 03:53:17;;;;;;;4.55;2.80;;;;;24.50;100092.00;;;;2047590;28;20755;-49
2022/06/23 03:54:22;;;;;;;3.40;2.88;;;;;24.50;100097.00;;;;2064491;28;20218;-49
2022/06/23 03:55:39;;;;;;;3.35;2.58;;;;;24.50;100012.00;;;;2071210;28;20693;-49
2022/06/23 03:57:10;;;;;;;3.25;2.95;;;;;24.50;100092.00;;;;2070793;28;20206;-49
2022/06/23 03:58:14;;;;;;;3.33;2.90;;;;;24.50;100091.00;;;;2043747;28;20220;-49
2022/06/23 03:59:26;;;;;;;3.00;2.80;;;;;24.50;100090.00;;;;2062925;28;20245;-49
2022/06/23 04:00:40;;;;;;;2.95;2.63;;;;;24.50;100083.00;;;;2055194;28;20297;-51
2022/06/23 04:01:58;;;;;;;3.60;2.53;;;;;24.50;100093.00;;;;2057887;28;20270;-49
2022/06/23 04:03:18;;;;;;;2.97;2.78;;;;;24.50;100096.00;;;;2070879;28;20257;-50
2022/06/23 04:04:23;;;;;;;3.35;2.67;;;;;24.50;100099.00;;;;2060286;28;20245;-49
2022/06/23 04:05:27;;;;;;;2.85;2.60;;;;;24.50;100100.00;;;;2066157;28;20776;-50
2022/06/23 04:06:32;;;;;;;2.90;2.65;;;;;24.50;100103.00;;;;2070818;28;20218;-49
2022/06/23 04:07:35;;;;;;;3.33;2.83;;;;;24.50;100102.00;;;;2070187;28;20206;-50
2022/06/23 04:08:42;;;;;;;3.00;2.67;;;;;24.50;100096.00;;;;2070838;28;20214;-50
2022/06/23 04:09:43;;;;;;;3.72;2.70;;;;;24.50;100104.00;;;;2053200;28;20648;-50
2022/06/23 04:10:43;;;;;;;2.57;2.30;;;;;24.50;100098.00;;;;2063574;28;20262;-49
2022/06/23 04:12:11;;;;;;;3.47;2.90;;;;;24.50;100100.00;;;;2073054;28;20221;-50
2022/06/23 04:13:15;;;;;;;3.15;2.88;;;;;24.50;100102.00;;;;2079175;28;20213;-50
2022/06/23 04:14:40;;;;;;;3.63;2.67;;;;;24.50;100091.00;;;;2079518;28;20308;-49
2022/06/23 04:15:41;;;;;;;3.25;2.97;;;;;24.50;100093.00;;;;2078985;28;20251;-49
2022/06/23 04:16:41;;;;;;;3.40;2.73;;;;;24.50;100096.00;;;;2070804;28;20202;-50
2022/06/23 04:17:46;;;;;;;5.13;2.90;;;;;24.50;100069.00;;;;2078342;28;20232;-50
2022/06/23 04:18:47;;;;;;;3.28;3.00;;;;;24.50;100090.00;;;;2079126;28;20216;-48
2022/06/23 04:19:50;;;;;;;3.60;2.80;;;;;24.50;100102.00;;;;2071194;28;20220;-50
2022/06/23 04:20:57;;;;;;;4.40;3.10;;;;;24.50;100101.00;;;;2071251;28;20226;-50
2022/06/23 04:22:04;;;;;;;2.85;2.50;;;;;24.50;100092.00;;;;2071611;28;20215;-49
2022/06/23 04:23:08;;;;;;;2.90;2.60;;;;;24.50;100093.00;;;;2063217;28;20223;-50
2022/06/23 04:24:14;;;;;;;3.42;3.00;;;;;24.50;100101.00;;;;2063539;28;20630;-50
2022/06/23 04:25:22;;;;;;;3.97;2.95;;;;;24.50;100097.00;;;;2071582;28;20222;-50
2022/06/23 04:26:32;;;;;;;6.40;2.47;;;;;24.50;100094.00;;;;2067923;28;20277;-50
2022/06/23 04:28:00;;;;;;;2.65;2.40;;;;;24.50;100089.00;;;;2062862;28;20214;-50
2022/06/23 04:29:34;;;;;;;3.10;2.75;;;;;24.50;100100.00;;;;2065603;28;20264;-50
2022/06/23 04:30:39;;;;;;;3.15;2.55;;;;;24.50;100087.00;;;;2071248;28;20786;-49
2022/06/23 04:31:42;;;;;;;3.42;3.10;;;;;24.50;100097.00;;;;2070696;28;20309;-49
2022/06/23 04:32:42;;;;;;;5.25;2.75;;;;;24.50;100095.00;;;;2068452;28;20206;-49
2022/06/23 04:33:43;;;;;;;3.10;2.60;;;;;24.50;100094.00;;;;2070546;28;20230;-50
2022/06/23 04:34:57;;;;;;;3.88;3.00;;;;;24.50;100099.00;;;;2075350;28;20294;-49
2022/06/23 04:35:58;;;;;;;2.97;2.50;;;;;24.50;100093.00;;;;2070805;28;20224;-49
2022/06/23 04:36:58;;;;;;;2.55;2.35;;;;;24.50;100094.00;;;;2063760;28;20241;-49
2022/06/23 04:38:10;;;;;;;3.30;2.53;;;;;24.50;100096.00;;;;2061870;28;20273;-49
2022/06/23 04:39:37;;;;;;;3.83;3.13;;;;;24.50;100106.00;;;;2070888;28;20214;-49
2022/06/23 04:40:43;;;;;;;3.15;2.85;;;;;24.50;100100.00;;;;2071133;28;20690;-50
2022/06/23 04:41:55;;;;;;;2.95;2.63;;;;;24.50;100097.00;;;;2076891;28;20206;-49
2022/06/23 04:43:02;;;;;;;2.80;2.58;;;;;24.50;100108.00;;;;2070077;28;20217;-50
2022/06/23 04:44:11;;;;;;;3.33;2.92;;;;;24.50;100109.00;;;;2063987;28;20215;-50
2022/06/23 04:45:32;;;;;;;3.25;2.78;;;;;24.50;100110.00;;;;2063926;28;20214;-50
2022/06/23 04:46:40;;;;;;;2.95;2.75;;;;;24.50;100095.00;;;;2058092;28;20804;-50
2022/06/23 04:47:41;;;;;;;2.60;2.40;;;;;24.50;100110.00;;;;2065340;28;20226;-49
2022/06/23 04:49:05;;;;;;;3.37;3.00;;;;;24.50;100115.00;;;;2079017;28;20225;-49
2022/06/23 04:50:12;;;;;;;3.72;2.78;;;;;24.50;100113.00;;;;2070404;28;20782;-50
2022/06/23 04:51:23;;;;;;;4.85;2.90;;;;;24.50;100119.00;;;;2074449;28;20775;-50
2022/06/23 04:52:34;;;;;;;4.28;2.80;;;;;24.50;100121.00;;;;2072354;28;20740;-50
2022/06/23 04:53:59;;;;;;;5.78;2.95;;;;;24.50;100114.00;;;;2065288;28;20285;-50
2022/06/23 04:55:04;;;;;;;3.45;2.70;;;;;24.50;100111.00;;;;2068556;28;20685;-50
2022/06/23 04:56:15;;;;;;;3.10;2.80;;;;;24.50;100112.00;;;;2069753;28;20229;-50
2022/06/23 04:57:23;;;;;;;3.35;2.88;;;;;24.50;100111.00;;;;2073842;28;20445;-49
2022/06/23 04:58:23;;;;;;;2.42;2.22;;;;;24.50;100114.00;;;;2071721;28;20218;-49
2022/06/23 04:59:35;;;;;;;4.43;3.00;;;;;24.50;100110.00;;;;2078764;28;20210;-50
2022/06/23 05:00:46;;;;;;;3.20;2.85;;;;;24.50;100111.00;;;;2068087;28;20560;-50
2022/06/23 05:01:47;;;;;;;3.38;2.67;;;;;24.50;100098.00;;;;2071098;28;20217;-50
2022/06/23 05:02:50;;;;;;;3.28;2.90;;;;;24.50;100106.00;;;;2070667;28;20720;-50
2022/06/23 05:03:53;;;;;;;3.30;3.00;;;;;24.50;100102.00;;;;2070618;28;20230;-50
2022/06/23 05:05:08;;;;;;;3.25;2.92;;;;;24.50;100105.00;;;;2071140;28;20310;-49
2022/06/23 05:06:28;;;;;;;2.85;2.65;;;;;24.50;100107.00;;;;2062240;28;20218;-50
2022/06/23 05:08:05;;;;;;;4.45;2.88;;;;;24.50;100117.00;;;;2067740;28;20249;-49
2022/06/23 05:09:18;;;;;;;3.00;2.70;;;;;24.50;100112.00;;;;2067743;28;20225;-50
2022/06/23 05:10:28;;;;;;;2.70;2.50;;;;;24.50;100120.00;;;;2077826;28;20221;-49
2022/06/23 05:11:32;;;;;;;4.15;2.78;;;;;24.50;100110.00;;;;2075258;28;20267;-49
2022/06/23 05:12:35;;;;;;;3.63;2.95;;;;;24.50;100115.00;;;;2069696;28;20215;-50
2022/06/23 05:13:41;;;;;;;3.45;2.70;;;;;24.50;100101.00;;;;2069953;28;20214;-50
2022/06/23 05:15:15;;;;;;;3.65;3.00;;;;;24.60;100116.00;;;;2061794;28;20246;-49
2022/06/23 05:16:22;;;;;;;2.50;2.30;;;;;24.60;100093.00;;;;2067132;28;20594;-48
2022/06/23 05:17:25;;;;;;;3.45;3.05;;;;;24.60;100110.00;;;;2069473;28;20646;-49
2022/06/23 05:18:27;;;;;;;2.95;2.60;;;;;24.60;100101.00;;;;2062549;28;20254;-49
2022/06/23 05:19:34;;;;;;;4.25;2.70;;;;;24.60;100102.00;;;;2062099;28;20227;-49
2022/06/23 05:20:40;;;;;;;6.20;2.50;;;;;24.60;100118.00;;;;2062323;28;20226;-48
2022/06/23 05:21:42;;;;;;;3.83;3.15;;;;;24.60;100109.00;;;;2073342;28;20205;-48
2022/06/23 05:22:45;;;;;;;4.53;2.75;;;;;24.60;100121.00;;;;2070806;28;20242;-48
2022/06/23 05:23:59;;;;;;;4.18;2.80;;;;;24.60;100118.00;;;;2069732;28;20237;-50
2022/06/23 05:25:12;;;;;;;4.15;2.85;;;;;24.60;100114.00;;;;2063096;28;20258;-49
2022/06/23 05:26:14;;;;;;;3.42;2.92;;;;;24.60;100115.00;;;;2063922;28;20215;-49
2022/06/23 05:27:19;;;;;;;2.70;2.50;;;;;24.60;100113.00;;;;2069228;28;20222;-49
2022/06/23 05:28:25;;;;;;;3.75;2.75;;;;;24.60;100110.00;;;;2069814;28;20361;-49
2022/06/23 05:29:26;;;;;;;4.47;3.00;;;;;24.60;100114.00;;;;2069713;28;20228;-49
2022/06/23 05:30:35;;;;;;;5.20;2.90;;;;;24.60;100114.00;;;;2077085;28;20213;-49
2022/06/23 05:31:36;;;;;;;4.63;2.92;;;;;24.60;100106.00;;;;2069647;28;20725;-50
2022/06/23 05:32:42;;;;;;;3.30;3.00;;;;;24.60;100024.00;;;;2070397;28;20430;-49
2022/06/23 05:33:45;;;;;;;3.47;2.70;;;;;24.60;100112.00;;;;2078239;28;20209;-49
2022/06/23 05:34:56;;;;;;;5.75;3.00;;;;;24.60;100100.00;;;;2061007;28;20736;-49
2022/06/23 05:36:18;;;;;;;3.00;2.70;;;;;24.70;100117.00;;;;2064337;28;20226;-49
2022/06/23 05:37:32;;;;;;;2.95;2.63;;;;;24.70;100116.00;;;;2072430;28;20221;-49
2022/06/23 05:38:47;;;;;;;4.15;3.08;;;;;24.70;100112.00;;;;2070128;28;21277;-49
2022/06/23 05:39:51;;;;;;;3.13;2.20;;;;;24.70;100107.00;;;;2063112;28;20284;-49
2022/06/23 05:40:55;;;;;;;7.88;2.80;;;;;24.70;100113.00;;;;2062514;28;20597;-49
2022/06/23 05:41:58;;;;;;;5.65;2.70;;;;;24.70;100117.00;;;;2070231;28;20210;-49
2022/06/23 05:43:00;;;;;;;3.33;3.00;;;;;24.70;100115.00;;;;2077195;28;20211;-49
2022/06/23 05:44:03;;;;;;;4.43;3.00;;;;;24.70;100116.00;;;;2072425;28;20214;-49
2022/06/23 05:45:11;;;;;;;2.63;2.40;;;;;24.70;100118.00;;;;2077000;28;20674;-49
2022/06/23 05:46:18;;;;;;;7.20;2.75;;;;;24.70;100119.00;;;;2069244;28;20206;-49
2022/06/23 05:47:19;;;;;;;5.23;3.07;;;;;24.70;100122.00;;;;2062217;28;20218;-49
2022/06/23 05:48:28;;;;;;;2.90;2.70;;;;;24.70;100140.00;;;;2061603;28;20521;-49
2022/06/23 05:49:34;;;;;;;5.07;3.17;;;;;24.70;100131.00;;;;2062174;28;20741;-49
2022/06/23 05:50:46;;;;;;;3.08;2.78;;;;;24.70;100139.00;;;;2074161;28;20232;-49
2022/06/23 05:51:55;;;;;;;4.45;3.40;;;;;24.70;100125.00;;;;2077289;28;20305;-50